Time;durP1;ratioP1;P1;durP2;ratioP2;P2;SDS_P1;SDS_P2;PMS_P1;PMS_P2;Temp;Humidity;BMP_temperature;BMP_pressure;BME280_temperature;BME280_humidity;BME280_pressure;Samples;Min_cycle;Max_cycle;Signal;HPM_P1;HPM_P2
2023/10/18 00:00:29;;;;;;;;;;;;;;;;;;5043768;28;20016;-77
2023/10/18 00:02:56;;;;;;;;;;;;;;;;;;5036414;28;19925;-76
2023/10/18 00:05:24;;;;;;;;;;;;;;;;;;5042626;28;19925;-77
2023/10/18 00:07:52;;;;;;;;;;;;;;;;;;5032546;28;19929;-76
2023/10/18 00:10:21;;;;;;;;;;;;;;;;;;5031701;28;19973;-75
2023/10/18 00:12:49;;;;;;;;;;;;;;;;;;5042402;28;19924;-75
2023/10/18 00:15:16;;;;;;;;;;;;;;;;;;5051163;28;20302;-76
2023/10/18 00:17:44;;;;;;;;;;;;;;;;;;5044001;28;20451;-75
2023/10/18 00:20:15;;;;;;;;;;;;;;;;;;5052599;28;19931;-76
2023/10/18 00:22:42;;;;;;;;;;;;;;;;;;5051415;28;19925;-76
2023/10/18 00:25:10;;;;;;;;;;;;;;;;;;5052273;28;20027;-76
2023/10/18 00:27:37;;;;;;;;;;;;;;;;;;5040003;28;19925;-76
2023/10/18 00:30:07;;;;;;;;;;;;;;;;;;5031997;28;19925;-76
2023/10/18 00:32:34;;;;;;;;;;;;;;;;;;5032222;28;19969;-74
2023/10/18 00:35:01;;;;;;;;;;;;;;;;;;5048458;28;19929;-75
2023/10/18 00:37:30;;;;;;;;;;;;;;;;;;5055059;28;19924;-75
2023/10/18 00:39:57;;;;;;;;;;;;;;;;;;5050326;28;19978;-75
2023/10/18 00:42:28;;;;;;;;;;;;;;;;;;5047506;28;19925;-75
2023/10/18 00:45:01;;;;;;;;;;;;;;;;;;5035870;28;19971;-75
2023/10/18 00:47:29;;;;;;;;;;;;;;;;;;5035981;28;20020;-76
2023/10/18 00:49:56;;;;;;;;;;;;;;;;;;5051174;28;20384;-75
2023/10/18 00:52:26;;;;;;;;;;;;;;;;;;5039174;28;19955;-75
2023/10/18 00:54:53;;;;;;;;;;;;;;;;;;5035810;28;19954;-76
2023/10/18 00:57:24;;;;;;;;;;;;;;;;;;5048222;28;20015;-76
2023/10/18 00:59:52;;;;;;;;;;;;;;;;;;5055192;28;19936;-76
2023/10/18 01:02:27;;;;;;;;;;;;;;;;;;5044808;28;20017;-76
2023/10/18 01:04:55;;;;;;;;;;;;;;;;;;5039157;28;19932;-75
2023/10/18 01:07:22;;;;;;;;;;;;;;;;;;5035218;28;19933;-75
2023/10/18 01:09:50;;;;;;;;;;;;;;;;;;5035911;28;19925;-75
2023/10/18 01:12:18;;;;;;;;;;;;;;;;;;5036188;28;19925;-76
2023/10/18 01:14:45;;;;;;;;;;;;;;;;;;5045819;28;19925;-76
2023/10/18 01:17:15;;;;;;;;;;;;;;;;;;5046961;28;20031;-76
2023/10/18 01:19:43;;;;;;;;;;;;;;;;;;5055306;28;19929;-74
2023/10/18 01:22:10;;;;;;;;;;;;;;;;;;5054138;28;20373;-74
2023/10/18 01:24:38;;;;;;;;;;;;;;;;;;5053245;28;19925;-77
2023/10/18 01:27:05;;;;;;;;;;;;;;;;;;5053195;28;19947;-77
2023/10/18 01:29:32;;;;;;;;;;;;;;;;;;5055175;28;19936;-77
2023/10/18 01:31:59;;;;;;;;;;;;;;;;;;5054422;28;19964;-77
2023/10/18 01:34:26;;;;;;;;;;;;;;;;;;5041256;28;19926;-77
2023/10/18 01:36:56;;;;;;;;;;;;;;;;;;5035234;28;19925;-76
2023/10/18 01:39:28;;;;;;;;;;;;;;;;;;5047714;28;19924;-76
2023/10/18 01:41:55;;;;;;;;;;;;;;;;;;5052669;28;19925;-76
2023/10/18 01:44:30;;;;;;;;;;;;;;;;;;5054257;28;19976;-75
2023/10/18 01:46:59;;;;;;;;;;;;;;;;;;5039512;28;20020;-76
2023/10/18 01:49:26;;;;;;;;;;;;;;;;;;5050075;28;19925;-75
2023/10/18 01:51:53;;;;;;;;;;;;;;;;;;5054668;28;19925;-76
2023/10/18 01:54:21;;;;;;;;;;;;;;;;;;5054491;28;19925;-76
2023/10/18 01:56:48;;;;;;;;;;;;;;;;;;5053124;28;19924;-75
2023/10/18 01:59:17;;;;;;;;;;;;;;;;;;5053312;28;20361;-75
2023/10/18 02:01:45;;;;;;;;;;;;;;;;;;5053341;28;19929;-75
2023/10/18 02:04:23;;;;;;;;;;;;;;;;;;5055709;28;19929;-76
2023/10/18 02:06:51;;;;;;;;;;;;;;;;;;5052392;28;19932;-76
2023/10/18 02:09:19;;;;;;;;;;;;;;;;;;5049995;28;19925;-76
2023/10/18 02:11:46;;;;;;;;;;;;;;;;;;5036611;28;19976;-76
2023/10/18 02:14:14;;;;;;;;;;;;;;;;;;5045407;28;19929;-76
2023/10/18 02:16:45;;;;;;;;;;;;;;;;;;5041854;28;20008;-76
2023/10/18 02:19:13;;;;;;;;;;;;;;;;;;5036374;28;20028;-76
2023/10/18 02:21:41;;;;;;;;;;;;;;;;;;5043016;28;19925;-75
2023/10/18 02:24:11;;;;;;;;;;;;;;;;;;5053830;28;19994;-76
2023/10/18 02:26:43;;;;;;;;;;;;;;;;;;5053501;28;19931;-76
2023/10/18 02:29:13;;;;;;;;;;;;;;;;;;5053285;28;19951;-74
2023/10/18 02:31:40;;;;;;;;;;;;;;;;;;5034532;28;20352;-76
2023/10/18 02:34:08;;;;;;;;;;;;;;;;;;5047989;28;19925;-76
2023/10/18 02:36:39;;;;;;;;;;;;;;;;;;5052124;28;19968;-75
2023/10/18 02:39:08;;;;;;;;;;;;;;;;;;5053418;28;19932;-75
2023/10/18 02:41:37;;;;;;;;;;;;;;;;;;5051458;28;19932;-76
2023/10/18 02:44:08;;;;;;;;;;;;;;;;;;5053355;28;19929;-76
2023/10/18 02:46:35;;;;;;;;;;;;;;;;;;5053555;28;20448;-77
2023/10/18 02:49:02;;;;;;;;;;;;;;;;;;5053844;28;20370;-77
2023/10/18 02:51:29;;;;;;;;;;;;;;;;;;5052020;28;19925;-75
2023/10/18 02:54:07;;;;;;;;;;;;;;;;;;5053248;28;20027;-75
2023/10/18 02:56:37;;;;;;;;;;;;;;;;;;5052233;28;19931;-74
2023/10/18 02:59:07;;;;;;;;;;;;;;;;;;5053086;28;19931;-74
2023/10/18 03:01:36;;;;;;;;;;;;;;;;;;5051578;28;19929;-76
2023/10/18 03:04:06;;;;;;;;;;;;;;;;;;5045173;28;19936;-76
2023/10/18 03:06:33;;;;;;;;;;;;;;;;;;5041965;28;19964;-75
2023/10/18 03:09:00;;;;;;;;;;;;;;;;;;5032966;28;19932;-75
2023/10/18 03:11:27;;;;;;;;;;;;;;;;;;5041663;28;19970;-76
2023/10/18 03:13:57;;;;;;;;;;;;;;;;;;5049455;28;19929;-76
2023/10/18 03:16:38;;;;;;;;;;;;;;;;;;5053193;28;19947;-75
2023/10/18 03:19:11;;;;;;;;;;;;;;;;;;5050315;28;19925;-74
2023/10/18 03:21:41;;;;;;;;;;;;;;;;;;5051323;28;19928;-74
2023/10/18 03:24:08;;;;;;;;;;;;;;;;;;5046575;28;19931;-74
2023/10/18 03:26:37;;;;;;;;;;;;;;;;;;5037426;28;19925;-76
2023/10/18 03:29:05;;;;;;;;;;;;;;;;;;5049460;28;19928;-74
2023/10/18 03:31:35;;;;;;;;;;;;;;;;;;5041124;28;19978;-75
2023/10/18 03:34:02;;;;;;;;;;;;;;;;;;5052599;28;19925;-74
2023/10/18 03:36:32;;;;;;;;;;;;;;;;;;5049995;28;20331;-74
2023/10/18 03:39:00;;;;;;;;;;;;;;;;;;5048934;28;19925;-74
2023/10/18 03:41:33;;;;;;;;;;;;;;;;;;5052124;28;19925;-74
2023/10/18 03:44:03;;;;;;;;;;;;;;;;;;5038172;28;19999;-75
2023/10/18 03:46:38;;;;;;;;;;;;;;;;;;5039895;28;20297;-74
2023/10/18 03:49:08;;;;;;;;;;;;;;;;;;5040193;28;19932;-75
2023/10/18 03:51:36;;;;;;;;;;;;;;;;;;5047536;28;19925;-75
2023/10/18 03:54:04;;;;;;;;;;;;;;;;;;5051765;28;19929;-74
2023/10/18 03:56:36;;;;;;;;;;;;;;;;;;5052110;28;20035;-74
2023/10/18 03:59:10;;;;;;;;;;;;;;;;;;5046447;28;19975;-75
2023/10/18 04:01:44;;;;;;;;;;;;;;;;;;5039554;28;19925;-75
2023/10/18 04:04:18;;;;;;;;;;;;;;;;;;5041473;28;19925;-75
2023/10/18 04:06:45;;;;;;;;;;;;;;;;;;5050656;28;19928;-74
2023/10/18 04:09:16;;;;;;;;;;;;;;;;;;5054762;28;19928;-74
2023/10/18 04:11:43;;;;;;;;;;;;;;;;;;5054436;28;19932;-74
2023/10/18 04:14:16;;;;;;;;;;;;;;;;;;5056026;28;20423;-75
2023/10/18 04:16:43;;;;;;;;;;;;;;;;;;5055183;28;19987;-75
2023/10/18 04:19:10;;;;;;;;;;;;;;;;;;5055552;28;19932;-74
2023/10/18 04:21:37;;;;;;;;;;;;;;;;;;5056178;28;19925;-74
2023/10/18 04:24:05;;;;;;;;;;;;;;;;;;5056408;28;20343;-74
2023/10/18 04:26:32;;;;;;;;;;;;;;;;;;5055493;28;19957;-73
2023/10/18 04:29:02;;;;;;;;;;;;;;;;;;5053765;28;19995;-74
2023/10/18 04:31:29;;;;;;;;;;;;;;;;;;5055168;28;19925;-74
2023/10/18 04:33:57;;;;;;;;;;;;;;;;;;5044587;28;19925;-74
2023/10/18 04:36:25;;;;;;;;;;;;;;;;;;5044472;28;19931;-74
2023/10/18 04:38:52;;;;;;;;;;;;;;;;;;5054699;28;19932;-73
2023/10/18 04:41:27;;;;;;;;;;;;;;;;;;5055238;28;20010;-73
2023/10/18 04:43:58;;;;;;;;;;;;;;;;;;5055246;28;19929;-74
2023/10/18 04:46:27;;;;;;;;;;;;;;;;;;5054267;28;20003;-74
2023/10/18 04:51:48;;;;;;;;;;;;;;;;;;5043123;28;19932;-75
2023/10/18 04:54:18;;;;;;;;;;;;;;;;;;5047256;28;19999;-75
2023/10/18 04:56:45;;;;;;;;;;;;;;;;;;5035939;28;19932;-75
2023/10/18 04:59:14;;;;;;;;;;;;;;;;;;5059680;28;19924;-76
2023/10/18 05:01:56;;;;;;;;;;;;;;;;;;5050607;28;19971;-76
2023/10/18 05:04:24;;;;;;;;;;;;;;;;;;5053908;28;20389;-75
2023/10/18 05:06:54;;;;;;;;;;;;;;;;;;5041820;28;19925;-75
2023/10/18 05:09:29;;;;;;;;;;;;;;;;;;5035640;28;19968;-76
2023/10/18 05:11:57;;;;;;;;;;;;;;;;;;5045337;28;20023;-75
2023/10/18 05:14:40;;;;;;;;;;;;;;;;;;5043538;28;20300;-73
2023/10/18 05:17:10;;;;;;;;;;;;;;;;;;5054339;28;20320;-75
2023/10/18 05:19:37;;;;;;;;;;;;;;;;;;5053952;28;19968;-74
2023/10/18 05:22:05;;;;;;;;;;;;;;;;;;5054779;28;19925;-73
2023/10/18 05:24:37;;;;;;;;;;;;;;;;;;5035292;28;19925;-76
2023/10/18 05:27:05;;;;;;;;;;;;;;;;;;5034909;28;20020;-75
2023/10/18 05:29:43;;;;;;;;;;;;;;;;;;5048279;28;19925;-75
2023/10/18 05:32:13;;;;;;;;;;;;;;;;;;5041398;28;19925;-74
2023/10/18 05:34:51;;;;;;;;;;;;;;;;;;5037363;28;19933;-76
2023/10/18 05:37:19;;;;;;;;;;;;;;;;;;5054747;28;20042;-76
2023/10/18 05:42:35;;;;;;;;;;;;;;;;;;5046026;28;19925;-74
2023/10/18 05:45:03;;;;;;;;;;;;;;;;;;5036106;28;19931;-74
2023/10/18 05:47:31;;;;;;;;;;;;;;;;;;5038094;28;20284;-74
2023/10/18 05:49:59;;;;;;;;;;;;;;;;;;5048712;28;19931;-74
2023/10/18 05:52:37;;;;;;;;;;;;;;;;;;5053990;28;19972;-74
2023/10/18 05:55:08;;;;;;;;;;;;;;;;;;5052792;28;20801;-74
2023/10/18 05:57:35;;;;;;;;;;;;;;;;;;5047010;28;19999;-74
2023/10/18 06:00:05;;;;;;;;;;;;;;;;;;5052931;28;19925;-76
2023/10/18 06:02:32;;;;;;;;;;;;;;;;;;5038056;28;19925;-73
2023/10/18 06:04:59;;;;;;;;;;;;;;;;;;5044021;28;19925;-73
2023/10/18 06:07:26;;;;;;;;;;;;;;;;;;5034096;28;19926;-73
2023/10/18 06:09:57;;;;;;;;;;;;;;;;;;5043974;28;20381;-72
2023/10/18 06:12:27;;;;;;;;;;;;;;;;;;5043106;28;20304;-68
2023/10/18 06:14:54;;;;;;;;;;;;;;;;;;5044622;28;20428;-73
2023/10/18 06:17:22;;;;;;;;;;;;;;;;;;5039714;28;20037;-70
2023/10/18 06:19:50;;;;;;;;;;;;;;;;;;5045030;28;19929;-71
2023/10/18 06:22:27;;;;;;;;;;;;;;;;;;5040287;28;19964;-75
2023/10/18 06:24:55;;;;;;;;;;;;;;;;;;5035706;28;19926;-74
2023/10/18 06:27:23;;;;;;;;;;;;;;;;;;5046011;28;20411;-75
2023/10/18 06:29:51;;;;;;;;;;;;;;;;;;5048992;28;20019;-76
2023/10/18 06:32:22;;;;;;;;;;;;;;;;;;5049282;28;20008;-76
2023/10/18 06:34:55;;;;;;;;;;;;;;;;;;5038182;28;19944;-74
2023/10/18 06:37:23;;;;;;;;;;;;;;;;;;5036299;28;19971;-74
2023/10/18 06:39:54;;;;;;;;;;;;;;;;;;5039566;28;19959;-75
2023/10/18 06:42:21;;;;;;;;;;;;;;;;;;5040507;28;19931;-72
2023/10/18 06:44:48;;;;;;;;;;;;;;;;;;5046251;28;19972;-75
2023/10/18 06:47:15;;;;;;;;;;;;;;;;;;5042053;28;19933;-75
2023/10/18 06:49:47;;;;;;;;;;;;;;;;;;5034580;28;19926;-74
2023/10/18 06:52:17;;;;;;;;;;;;;;;;;;5043825;28;19925;-77
2023/10/18 06:54:45;;;;;;;;;;;;;;;;;;5043145;28;20019;-76
2023/10/18 06:57:26;;;;;;;;;;;;;;;;;;5036720;28;20389;-76
2023/10/18 06:59:54;;;;;;;;;;;;;;;;;;5032657;28;20361;-76
2023/10/18 07:02:27;;;;;;;;;;;;;;;;;;5041408;28;20389;-76
2023/10/18 07:04:56;;;;;;;;;;;;;;;;;;5046175;28;20019;-73
2023/10/18 07:07:23;;;;;;;;;;;;;;;;;;5042084;28;20369;-72
2023/10/18 07:09:52;;;;;;;;;;;;;;;;;;5038585;28;19924;-73
2023/10/18 07:12:19;;;;;;;;;;;;;;;;;;5041738;28;19951;-72
2023/10/18 07:14:46;;;;;;;;;;;;;;;;;;5044593;28;19964;-73
2023/10/18 07:17:14;;;;;;;;;;;;;;;;;;5039857;28;19979;-73
2023/10/18 07:19:48;;;;;;;;;;;;;;;;;;5042526;28;19999;-73
2023/10/18 07:22:18;;;;;;;;;;;;;;;;;;5047596;28;20016;-72
2023/10/18 07:24:47;;;;;;;;;;;;;;;;;;5047065;28;19929;-73
2023/10/18 07:27:16;;;;;;;;;;;;;;;;;;5034416;28;19925;-73
2023/10/18 07:29:48;;;;;;;;;;;;;;;;;;5044488;28;19925;-73
2023/10/18 07:32:20;;;;;;;;;;;;;;;;;;5041713;28;20300;-74
2023/10/18 07:34:48;;;;;;;;;;;;;;;;;;5038985;28;19979;-73
2023/10/18 07:37:24;;;;;;;;;;;;;;;;;;5045934;28;19982;-73
2023/10/18 07:39:56;;;;;;;;;;;;;;;;;;5047887;28;19947;-73
2023/10/18 07:42:26;;;;;;;;;;;;;;;;;;5045280;28;20020;-73
2023/10/18 07:44:55;;;;;;;;;;;;;;;;;;5039127;28;20382;-73
2023/10/18 07:47:25;;;;;;;;;;;;;;;;;;5038810;28;20361;-72
2023/10/18 07:49:55;;;;;;;;;;;;;;;;;;5040368;28;20329;-73
2023/10/18 07:52:22;;;;;;;;;;;;;;;;;;5045960;28;19948;-72
2023/10/18 07:54:49;;;;;;;;;;;;;;;;;;5044976;28;19979;-72
2023/10/18 07:57:17;;;;;;;;;;;;;;;;;;5040824;28;20002;-73
2023/10/18 07:59:47;;;;;;;;;;;;;;;;;;5044888;28;19968;-73
2023/10/18 08:02:19;;;;;;;;;;;;;;;;;;5042491;28;19925;-73
2023/10/18 08:04:48;;;;;;;;;;;;;;;;;;5036338;28;20455;-73
2023/10/18 08:07:19;;;;;;;;;;;;;;;;;;5040165;28;20015;-73
2023/10/18 08:09:48;;;;;;;;;;;;;;;;;;5038710;28;19933;-73
2023/10/18 08:12:33;;;;;;;;;;;;;;;;;;5042805;28;19925;-73
2023/10/18 08:15:00;;;;;;;;;;;;;;;;;;5041817;28;19925;-73
2023/10/18 08:17:43;;;;;;;;;;;;;;;;;;5038617;28;19925;-73
2023/10/18 08:22:55;;;;;;;;;;;;;;;;;;5041199;28;19939;-73
2023/10/18 08:25:29;;;;;;;;;;;;;;;;;;5040112;28;19979;-73
2023/10/18 08:27:57;;;;;;;;;;;;;;;;;;5036780;28;19943;-73
2023/10/18 08:30:30;;;;;;;;;;;;;;;;;;5036814;28;20031;-70
2023/10/18 08:32:58;;;;;;;;;;;;;;;;;;5041188;28;19925;-69
2023/10/18 08:35:25;;;;;;;;;;;;;;;;;;5037440;28;19988;-69
2023/10/18 08:37:52;;;;;;;;;;;;;;;;;;5037830;28;19925;-69
2023/10/18 08:40:27;;;;;;;;;;;;;;;;;;5037187;28;19925;-69
2023/10/18 08:42:56;;;;;;;;;;;;;;;;;;5041274;28;19931;-69
2023/10/18 08:45:23;;;;;;;;;;;;;;;;;;5035598;28;19931;-69
2023/10/18 08:47:50;;;;;;;;;;;;;;;;;;5042649;28;19925;-72
2023/10/18 08:50:17;;;;;;;;;;;;;;;;;;5036520;28;19925;-73
2023/10/18 08:52:47;;;;;;;;;;;;;;;;;;5040963;28;19925;-73
2023/10/18 08:55:22;;;;;;;;;;;;;;;;;;5045708;28;19933;-73
2023/10/18 08:57:54;;;;;;;;;;;;;;;;;;5051568;28;19932;-72
2023/10/18 09:03:02;;;;;;;;;;;;;;;;;;5045575;28;19928;-72
2023/10/18 09:05:28;;;;;;;;;;;;;;;;;;5050060;28;19978;-72
2023/10/18 09:07:59;;;;;;;;;;;;;;;;;;5039552;28;20328;-73
2023/10/18 09:10:43;;;;;;;;;;;;;;;;;;5043196;28;20011;-73
2023/10/18 09:13:32;;;;;;;;;;;;;;;;;;5044687;28;19987;-73
2023/10/18 09:16:02;;;;;;;;;;;;;;;;;;5043026;28;20376;-74
2023/10/18 09:18:30;;;;;;;;;;;;;;;;;;5044060;28;20035;-73
2023/10/18 09:21:07;;;;;;;;;;;;;;;;;;5047076;28;19925;-72
2023/10/18 09:23:34;;;;;;;;;;;;;;;;;;5036844;28;21121;-73
2023/10/18 09:26:06;;;;;;;;;;;;;;;;;;5046836;28;20381;-71
2023/10/18 09:28:33;;;;;;;;;;;;;;;;;;5050598;28;20031;-72
2023/10/18 09:31:01;;;;;;;;;;;;;;;;;;5037402;28;20023;-72
2023/10/18 09:33:31;;;;;;;;;;;;;;;;;;5052899;28;19935;-74
2023/10/18 09:36:01;;;;;;;;;;;;;;;;;;5045188;28;19933;-72
2023/10/18 09:38:28;;;;;;;;;;;;;;;;;;5040441;28;19928;-72
2023/10/18 09:40:55;;;;;;;;;;;;;;;;;;5038265;28;19952;-73
2023/10/18 09:43:22;;;;;;;;;;;;;;;;;;5036515;28;19925;-73
2023/10/18 09:45:49;;;;;;;;;;;;;;;;;;5049948;28;19970;-73
2023/10/18 09:48:16;;;;;;;;;;;;;;;;;;5049732;28;19929;-72
2023/10/18 09:50:44;;;;;;;;;;;;;;;;;;5038938;28;19968;-69
2023/10/18 09:53:11;;;;;;;;;;;;;;;;;;5033152;28;19929;-69
2023/10/18 09:55:41;;;;;;;;;;;;;;;;;;5036833;28;19971;-69
2023/10/18 09:58:15;;;;;;;;;;;;;;;;;;5033658;28;19936;-70
2023/10/18 10:00:42;;;;;;;;;;;;;;;;;;5040000;28;19929;-71
2023/10/18 10:03:09;;;;;;;;;;;;;;;;;;5050557;28;20451;-70
2023/10/18 10:05:41;;;;;;;;;;;;;;;;;;5038721;28;19937;-70
2023/10/18 10:08:08;;;;;;;;;;;;;;;;;;5046863;28;19937;-71
2023/10/18 10:10:44;;;;;;;;;;;;;;;;;;5049055;28;20404;-70
2023/10/18 10:13:12;;;;;;;;;;;;;;;;;;5043874;28;19939;-71
2023/10/18 10:15:39;;;;;;;;;;;;;;;;;;5043316;28;19925;-70
2023/10/18 10:18:06;;;;;;;;;;;;;;;;;;5051504;28;19971;-73
2023/10/18 10:20:33;;;;;;;;;;;;;;;;;;5036965;28;19933;-73
2023/10/18 10:23:02;;;;;;;;;;;;;;;;;;5043164;28;20446;-73
2023/10/18 10:25:32;;;;;;;;;;;;;;;;;;5037519;28;20024;-73
2023/10/18 10:28:13;;;;;;;;;;;;;;;;;;5033537;28;20333;-72
2023/10/18 10:30:43;;;;;;;;;;;;;;;;;;5040950;28;20384;-72
2023/10/18 10:33:13;;;;;;;;;;;;;;;;;;5047021;28;19943;-72
2023/10/18 10:35:40;;;;;;;;;;;;;;;;;;5052645;28;19964;-73
2023/10/18 10:38:13;;;;;;;;;;;;;;;;;;5051356;28;19925;-73
2023/10/18 10:40:43;;;;;;;;;;;;;;;;;;5053278;28;19947;-74
2023/10/18 10:43:12;;;;;;;;;;;;;;;;;;5052379;28;19925;-74
2023/10/18 10:45:38;;;;;;;;;;;;;;;;;;5049931;28;19924;-74
2023/10/18 10:48:05;;;;;;;;;;;;;;;;;;5044003;28;19978;-72
2023/10/18 10:50:33;;;;;;;;;;;;;;;;;;5040673;28;19987;-72
2023/10/18 10:53:05;;;;;;;;;;;;;;;;;;5043339;28;19929;-73
2023/10/18 10:55:34;;;;;;;;;;;;;;;;;;5044387;28;19964;-73
2023/10/18 10:58:01;;;;;;;;;;;;;;;;;;5044571;28;19998;-73
2023/10/18 11:00:49;;;;;;;;;;;;;;;;;;5048852;28;19928;-71
2023/10/18 11:03:15;;;;;;;;;;;;;;;;;;5041315;28;19933;-73
2023/10/18 11:05:45;;;;;;;;;;;;;;;;;;5049039;28;20313;-72
2023/10/18 11:08:12;;;;;;;;;;;;;;;;;;5037139;28;20019;-70
2023/10/18 11:10:41;;;;;;;;;;;;;;;;;;5032598;28;19929;-73
2023/10/18 11:13:09;;;;;;;;;;;;;;;;;;5037545;28;19943;-72
2023/10/18 11:15:36;;;;;;;;;;;;;;;;;;5036213;28;19980;-72
2023/10/18 11:18:19;;;;;;;;;;;;;;;;;;5038520;28;19986;-74
2023/10/18 11:20:58;;;;;;;;;;;;;;;;;;5037940;28;19953;-74
2023/10/18 11:23:26;;;;;;;;;;;;;;;;;;5035798;28;20071;-72
2023/10/18 11:25:56;;;;;;;;;;;;;;;;;;5037246;28;19932;-73
2023/10/18 11:28:28;;;;;;;;;;;;;;;;;;5044309;28;19925;-73
2023/10/18 11:30:56;;;;;;;;;;;;;;;;;;5050720;28;19971;-73
2023/10/18 11:33:25;;;;;;;;;;;;;;;;;;5044174;28;19924;-75
2023/10/18 11:35:54;;;;;;;;;;;;;;;;;;5040598;28;19967;-74
2023/10/18 11:38:21;;;;;;;;;;;;;;;;;;5037514;28;19932;-72
2023/10/18 11:40:48;;;;;;;;;;;;;;;;;;5033483;28;19929;-72
2023/10/18 11:43:20;;;;;;;;;;;;;;;;;;5046583;28;19925;-72
2023/10/18 11:45:48;;;;;;;;;;;;;;;;;;5045310;28;20365;-73
2023/10/18 11:48:15;;;;;;;;;;;;;;;;;;5038529;28;19969;-73
2023/10/18 11:50:42;;;;;;;;;;;;;;;;;;5039869;28;19978;-73
2023/10/18 11:53:12;;;;;;;;;;;;;;;;;;5047297;28;19948;-72
2023/10/18 11:55:39;;;;;;;;;;;;;;;;;;5039371;28;19925;-73
2023/10/18 11:58:08;;;;;;;;;;;;;;;;;;5046659;28;19994;-75
2023/10/18 12:00:38;;;;;;;;;;;;;;;;;;5043539;28;19924;-73
2023/10/18 12:03:08;;;;;;;;;;;;;;;;;;5041619;28;19984;-73
2023/10/18 12:05:36;;;;;;;;;;;;;;;;;;5044388;28;19925;-73
2023/10/18 12:08:05;;;;;;;;;;;;;;;;;;5041304;28;19948;-73
2023/10/18 12:10:35;;;;;;;;;;;;;;;;;;5047756;28;19925;-73
2023/10/18 12:13:06;;;;;;;;;;;;;;;;;;5040670;28;19929;-73
2023/10/18 12:15:33;;;;;;;;;;;;;;;;;;5038445;28;20288;-72
2023/10/18 12:18:04;;;;;;;;;;;;;;;;;;5047416;28;20388;-72
2023/10/18 12:20:36;;;;;;;;;;;;;;;;;;5049781;28;19925;-73
2023/10/18 12:23:04;;;;;;;;;;;;;;;;;;5051065;28;20003;-72
2023/10/18 12:25:32;;;;;;;;;;;;;;;;;;5045814;28;19924;-72
2023/10/18 12:28:00;;;;;;;;;;;;;;;;;;5035731;28;20004;-73
2023/10/18 12:30:37;;;;;;;;;;;;;;;;;;5043041;28;20023;-73
2023/10/18 12:33:06;;;;;;;;;;;;;;;;;;5039255;28;19925;-72
2023/10/18 12:35:33;;;;;;;;;;;;;;;;;;5038511;28;19979;-72
2023/10/18 12:38:00;;;;;;;;;;;;;;;;;;5040154;28;19987;-72
2023/10/18 12:40:31;;;;;;;;;;;;;;;;;;5051634;28;19925;-71
2023/10/18 12:43:00;;;;;;;;;;;;;;;;;;5050945;28;19972;-71
2023/10/18 12:45:27;;;;;;;;;;;;;;;;;;5041749;28;20360;-73
2023/10/18 12:47:55;;;;;;;;;;;;;;;;;;5042119;28;20397;-73
2023/10/18 12:50:27;;;;;;;;;;;;;;;;;;5035729;28;20364;-72
2023/10/18 12:52:56;;;;;;;;;;;;;;;;;;5049751;28;20055;-73
2023/10/18 12:55:32;;;;;;;;;;;;;;;;;;5044875;28;19933;-72
2023/10/18 12:58:00;;;;;;;;;;;;;;;;;;5046181;28;19978;-72
2023/10/18 13:00:26;;;;;;;;;;;;;;;;;;5040063;28;19972;-73
2023/10/18 13:05:41;;;;;;;;;;;;;;;;;;5044995;28;19935;-74
2023/10/18 13:08:16;;;;;;;;;;;;;;;;;;5043080;28;19986;-74
2023/10/18 13:10:48;;;;;;;;;;;;;;;;;;5034627;28;19970;-73
2023/10/18 13:13:16;;;;;;;;;;;;;;;;;;5042114;28;20016;-74
2023/10/18 13:15:46;;;;;;;;;;;;;;;;;;5044252;28;19924;-74
2023/10/18 13:18:14;;;;;;;;;;;;;;;;;;5052389;28;19925;-73
2023/10/18 13:20:44;;;;;;;;;;;;;;;;;;5044026;28;19924;-75
2023/10/18 13:23:12;;;;;;;;;;;;;;;;;;5039455;28;20476;-74
2023/10/18 13:25:49;;;;;;;;;;;;;;;;;;5044761;28;19924;-74
2023/10/18 13:28:24;;;;;;;;;;;;;;;;;;5046810;28;20401;-74
2023/10/18 13:30:51;;;;;;;;;;;;;;;;;;5034675;28;20389;-74
2023/10/18 13:33:18;;;;;;;;;;;;;;;;;;5038511;28;20018;-73
2023/10/18 13:35:45;;;;;;;;;;;;;;;;;;5035382;28;20429;-73
2023/10/18 13:38:15;;;;;;;;;;;;;;;;;;5036901;28;20385;-73
2023/10/18 13:40:43;;;;;;;;;;;;;;;;;;5037857;28;19929;-74
2023/10/18 13:43:13;;;;;;;;;;;;;;;;;;5039968;28;20028;-72
2023/10/18 13:45:41;;;;;;;;;;;;;;;;;;5039622;28;19925;-74
2023/10/18 13:48:11;;;;;;;;;;;;;;;;;;5044171;28;19976;-73
2023/10/18 13:50:38;;;;;;;;;;;;;;;;;;5047364;28;19999;-73
2023/10/18 13:53:05;;;;;;;;;;;;;;;;;;5042498;28;19933;-73
2023/10/18 13:55:32;;;;;;;;;;;;;;;;;;5042179;28;20389;-74
2023/10/18 13:58:00;;;;;;;;;;;;;;;;;;5035882;28;19929;-74
2023/10/18 14:00:27;;;;;;;;;;;;;;;;;;5040635;28;20344;-73
2023/10/18 14:02:55;;;;;;;;;;;;;;;;;;5046494;28;19925;-73
2023/10/18 14:05:22;;;;;;;;;;;;;;;;;;5037867;28;20393;-73
2023/10/18 14:07:49;;;;;;;;;;;;;;;;;;5047881;28;20383;-73
2023/10/18 14:10:28;;;;;;;;;;;;;;;;;;5047016;28;19979;-74
2023/10/18 14:12:54;;;;;;;;;;;;;;;;;;5038412;28;20031;-74
2023/10/18 14:15:21;;;;;;;;;;;;;;;;;;5035273;28;19978;-74
2023/10/18 14:17:52;;;;;;;;;;;;;;;;;;5037555;28;19948;-72
2023/10/18 14:20:24;;;;;;;;;;;;;;;;;;5039909;28;19925;-72
2023/10/18 14:22:53;;;;;;;;;;;;;;;;;;5033002;28;19925;-72
2023/10/18 14:25:20;;;;;;;;;;;;;;;;;;5045615;28;19932;-72
2023/10/18 14:27:47;;;;;;;;;;;;;;;;;;5040176;28;19925;-72
2023/10/18 14:30:15;;;;;;;;;;;;;;;;;;5039381;28;20015;-72
2023/10/18 14:32:43;;;;;;;;;;;;;;;;;;5042089;28;20364;-72
2023/10/18 14:35:10;;;;;;;;;;;;;;;;;;5034396;28;19956;-72
2023/10/18 14:37:40;;;;;;;;;;;;;;;;;;5039724;28;20394;-73
2023/10/18 14:40:07;;;;;;;;;;;;;;;;;;5045454;28;20035;-74
2023/10/18 14:42:34;;;;;;;;;;;;;;;;;;5045530;28;20002;-73
2023/10/18 14:45:01;;;;;;;;;;;;;;;;;;5034681;28;19987;-73
2023/10/18 14:47:31;;;;;;;;;;;;;;;;;;5034108;28;19929;-74
2023/10/18 14:49:58;;;;;;;;;;;;;;;;;;5040691;28;19933;-71
2023/10/18 14:52:26;;;;;;;;;;;;;;;;;;5039327;28;20434;-71
2023/10/18 14:54:53;;;;;;;;;;;;;;;;;;5046333;28;19924;-73
2023/10/18 14:57:20;;;;;;;;;;;;;;;;;;5036910;28;19925;-72
2023/10/18 14:59:48;;;;;;;;;;;;;;;;;;5036681;28;20034;-71
2023/10/18 15:02:15;;;;;;;;;;;;;;;;;;5040034;28;20405;-72
2023/10/18 15:04:42;;;;;;;;;;;;;;;;;;5041322;28;19932;-72
2023/10/18 15:07:09;;;;;;;;;;;;;;;;;;5042913;28;19990;-72
2023/10/18 15:09:39;;;;;;;;;;;;;;;;;;5049131;28;19932;-72
2023/10/18 15:12:07;;;;;;;;;;;;;;;;;;5048523;28;19952;-72
2023/10/18 15:14:34;;;;;;;;;;;;;;;;;;5043330;28;20012;-71
2023/10/18 15:17:01;;;;;;;;;;;;;;;;;;5048202;28;19978;-72
2023/10/18 15:19:28;;;;;;;;;;;;;;;;;;5040648;28;19929;-72
2023/10/18 15:21:55;;;;;;;;;;;;;;;;;;5051664;28;20458;-73
2023/10/18 15:24:23;;;;;;;;;;;;;;;;;;5048730;28;19925;-71
2023/10/18 15:26:50;;;;;;;;;;;;;;;;;;5056379;28;20417;-71
2023/10/18 15:29:18;;;;;;;;;;;;;;;;;;5041958;28;19932;-71
2023/10/18 15:31:46;;;;;;;;;;;;;;;;;;5041632;28;20420;-72
2023/10/18 15:34:13;;;;;;;;;;;;;;;;;;5037636;28;19929;-72
2023/10/18 15:36:41;;;;;;;;;;;;;;;;;;5046129;28;20002;-72
2023/10/18 15:39:08;;;;;;;;;;;;;;;;;;5054723;28;20023;-72
2023/10/18 15:41:37;;;;;;;;;;;;;;;;;;5044730;28;20004;-71
2023/10/18 15:44:04;;;;;;;;;;;;;;;;;;5038368;28;19932;-72
2023/10/18 15:46:32;;;;;;;;;;;;;;;;;;5037885;28;19928;-72
2023/10/18 15:49:00;;;;;;;;;;;;;;;;;;5032029;28;19924;-71
2023/10/18 15:51:27;;;;;;;;;;;;;;;;;;5041527;28;19933;-71
2023/10/18 15:53:54;;;;;;;;;;;;;;;;;;5036316;28;20309;-70
2023/10/18 15:56:22;;;;;;;;;;;;;;;;;;5042904;28;19931;-73
2023/10/18 15:58:49;;;;;;;;;;;;;;;;;;5036713;28;20009;-71
2023/10/18 16:01:17;;;;;;;;;;;;;;;;;;5034790;28;19933;-71
2023/10/18 16:03:44;;;;;;;;;;;;;;;;;;5033525;28;19926;-71
2023/10/18 16:06:12;;;;;;;;;;;;;;;;;;5040816;28;19932;-72
2023/10/18 16:08:39;;;;;;;;;;;;;;;;;;5043913;28;20436;-71
2023/10/18 16:11:06;;;;;;;;;;;;;;;;;;5036535;28;19936;-72
2023/10/18 16:13:34;;;;;;;;;;;;;;;;;;5036285;28;19928;-71
2023/10/18 16:16:01;;;;;;;;;;;;;;;;;;5043930;28;19943;-72
2023/10/18 16:18:29;;;;;;;;;;;;;;;;;;5036170;28;19924;-71
2023/10/18 16:20:56;;;;;;;;;;;;;;;;;;5034682;28;20020;-72
2023/10/18 16:23:23;;;;;;;;;;;;;;;;;;5035893;28;19982;-72
2023/10/18 16:25:50;;;;;;;;;;;;;;;;;;5038941;28;20022;-72
2023/10/18 16:28:18;;;;;;;;;;;;;;;;;;5042518;28;19929;-72
2023/10/18 16:30:45;;;;;;;;;;;;;;;;;;5036501;28;20031;-72
2023/10/18 16:33:12;;;;;;;;;;;;;;;;;;5035043;28;19928;-73
2023/10/18 16:35:39;;;;;;;;;;;;;;;;;;5038677;28;19982;-71
2023/10/18 16:38:08;;;;;;;;;;;;;;;;;;5042773;28;19994;-71
2023/10/18 16:40:36;;;;;;;;;;;;;;;;;;5042623;28;19933;-71
2023/10/18 16:43:04;;;;;;;;;;;;;;;;;;5042613;28;20373;-72
2023/10/18 16:45:31;;;;;;;;;;;;;;;;;;5035254;28;20010;-72
2023/10/18 16:48:00;;;;;;;;;;;;;;;;;;5035171;28;19925;-75
2023/10/18 16:50:27;;;;;;;;;;;;;;;;;;5041626;28;19925;-72
2023/10/18 16:52:55;;;;;;;;;;;;;;;;;;5039136;28;19963;-72
2023/10/18 16:55:23;;;;;;;;;;;;;;;;;;5039719;28;20355;-72
2023/10/18 16:57:51;;;;;;;;;;;;;;;;;;5038500;28;19971;-72
2023/10/18 17:00:18;;;;;;;;;;;;;;;;;;5037418;28;19933;-72
2023/10/18 17:02:45;;;;;;;;;;;;;;;;;;5035529;28;19968;-72
2023/10/18 17:05:13;;;;;;;;;;;;;;;;;;5036751;28;20357;-72
2023/10/18 17:07:41;;;;;;;;;;;;;;;;;;5038343;28;19932;-73
2023/10/18 17:10:08;;;;;;;;;;;;;;;;;;5037113;28;19932;-73
2023/10/18 17:12:36;;;;;;;;;;;;;;;;;;5043050;28;19925;-73